sensor_id;sensor_type;location;lat;lon;timestamp;pressure;altitude;pressure_sealevel;temperature;humidity
58243;BME280;50118;53.232;8.252;2023-03-31T00:02:08;100107.91;;;10.26;100.00
58243;BME280;50118;53.232;8.252;2023-03-31T00:04:42;100102.91;;;10.23;100.00
58243;BME280;50118;53.232;8.252;2023-03-31T00:07:19;100106.25;;;10.25;100.00
58243;BME280;50118;53.232;8.252;2023-03-31T00:09:48;100100.94;;;10.25;100.00
58243;BME280;50118;53.232;8.252;2023-03-31T00:12:14;100105.56;;;10.23;100.00
58243;BME280;50118;53.232;8.252;2023-03-31T00:14:40;100092.78;;;10.26;100.00
58243;BME280;50118;53.232;8.252;2023-03-31T00:17:06;100092.91;;;10.17;100.00
58243;BME280;50118;53.232;8.252;2023-03-31T00:19:32;100085.94;;;10.24;100.00
58243;BME280;50118;53.232;8.252;2023-03-31T00:21:58;100096.25;;;10.19;100.00
58243;BME280;50118;53.232;8.252;2023-03-31T00:24:27;100089.38;;;10.16;100.00
58243;BME280;50118;53.232;8.252;2023-03-31T00:26:57;100079.56;;;10.08;100.00
58243;BME280;50118;53.232;8.252;2023-03-31T00:29:23;100075.16;;;9.99;100.00
58243;BME280;50118;53.232;8.252;2023-03-31T00:31:48;100077.00;;;9.99;100.00
58243;BME280;50118;53.232;8.252;2023-03-31T00:34:13;100082.84;;;10.02;100.00
58243;BME280;50118;53.232;8.252;2023-03-31T00:36:39;100069.53;;;10.02;100.00
58243;BME280;50118;53.232;8.252;2023-03-31T00:39:10;100069.22;;;10.05;100.00
58243;BME280;50118;53.232;8.252;2023-03-31T00:41:36;100068.59;;;10.12;100.00
58243;BME280;50118;53.232;8.252;2023-03-31T00:49:13;100069.94;;;10.16;100.00
58243;BME280;50118;53.232;8.252;2023-03-31T00:51:39;100062.94;;;10.15;100.00
58243;BME280;50118;53.232;8.252;2023-03-31T00:54:05;100057.09;;;10.11;100.00
58243;BME280;50118;53.232;8.252;2023-03-31T00:56:35;100061.28;;;10.14;100.00
58243;BME280;50118;53.232;8.252;2023-03-31T00:59:03;100062.63;;;10.18;100.00
58243;BME280;50118;53.232;8.252;2023-03-31T01:01:33;100054.28;;;10.13;100.00
58243;BME280;50118;53.232;8.252;2023-03-31T01:04:05;100051.47;;;10.14;100.00
58243;BME280;50118;53.232;8.252;2023-03-31T01:06:32;100052.28;;;10.15;100.00
58243;BME280;50118;53.232;8.252;2023-03-31T01:08:59;100041.13;;;10.11;100.00
58243;BME280;50118;53.232;8.252;2023-03-31T01:11:29;100038.31;;;10.13;100.00
58243;BME280;50118;53.232;8.252;2023-03-31T01:13:55;100027.63;;;10.04;100.00
58243;BME280;50118;53.232;8.252;2023-03-31T01:16:21;100026.34;;;10.08;100.00
58243;BME280;50118;53.232;8.252;2023-03-31T01:18:48;100016.72;;;10.16;100.00
58243;BME280;50118;53.232;8.252;2023-03-31T01:31:59;100001.72;;;10.06;100.00
58243;BME280;50118;53.232;8.252;2023-03-31T01:40:36;99988.88;;;10.02;100.00
58243;BME280;50118;53.232;8.252;2023-03-31T01:43:34;99976.06;;;9.97;100.00
58243;BME280;50118;53.232;8.252;2023-03-31T01:46:29;99969.25;;;9.95;100.00
58243;BME280;50118;53.232;8.252;2023-03-31T01:49:19;99971.72;;;9.88;100.00
58243;BME280;50118;53.232;8.252;2023-03-31T01:51:58;99972.00;;;9.85;100.00
58243;BME280;50118;53.232;8.252;2023-03-31T01:54:39;99968.88;;;9.89;100.00
58243;BME280;50118;53.232;8.252;2023-03-31T01:57:18;99958.38;;;9.80;100.00
58243;BME280;50118;53.232;8.252;2023-03-31T02:02:23;99945.41;;;9.85;100.00
58243;BME280;50118;53.232;8.252;2023-03-31T02:04:58;99945.84;;;9.72;100.00
58243;BME280;50118;53.232;8.252;2023-03-31T02:07:33;99937.69;;;9.65;100.00
58243;BME280;50118;53.232;8.252;2023-03-31T02:10:03;99922.84;;;9.54;100.00
58243;BME280;50118;53.232;8.252;2023-03-31T02:12:31;99921.59;;;9.41;100.00
58243;BME280;50118;53.232;8.252;2023-03-31T02:14:59;99916.53;;;9.21;100.00
58243;BME280;50118;53.232;8.252;2023-03-31T02:17:27;99930.03;;;9.10;100.00
58243;BME280;50118;53.232;8.252;2023-03-31T02:20:02;99928.38;;;9.09;100.00
58243;BME280;50118;53.232;8.252;2023-03-31T02:22:37;99925.03;;;9.07;100.00
58243;BME280;50118;53.232;8.252;2023-03-31T02:25:05;99922.44;;;9.15;100.00
58243;BME280;50118;53.232;8.252;2023-03-31T02:27:35;99923.19;;;9.25;100.00
58243;BME280;50118;53.232;8.252;2023-03-31T02:30:03;99920.88;;;9.30;100.00
58243;BME280;50118;53.232;8.252;2023-03-31T02:32:40;99920.63;;;9.42;100.00
58243;BME280;50118;53.232;8.252;2023-03-31T02:35:09;99912.00;;;9.48;100.00
58243;BME280;50118;53.232;8.252;2023-03-31T02:37:37;99921.34;;;9.60;100.00
58243;BME280;50118;53.232;8.252;2023-03-31T02:40:09;99916.91;;;9.61;100.00
58243;BME280;50118;53.232;8.252;2023-03-31T02:42:39;99916.44;;;9.65;100.00
58243;BME280;50118;53.232;8.252;2023-03-31T02:45:59;99902.16;;;9.75;100.00
58243;BME280;50118;53.232;8.252;2023-03-31T02:48:23;99895.16;;;9.65;100.00
58243;BME280;50118;53.232;8.252;2023-03-31T02:51:18;99889.44;;;9.60;100.00
58243;BME280;50118;53.232;8.252;2023-03-31T02:56:51;99882.13;;;9.54;100.00
58243;BME280;50118;53.232;8.252;2023-03-31T03:05:07;99887.81;;;9.59;100.00
58243;BME280;50118;53.232;8.252;2023-03-31T03:13:19;99880.03;;;9.66;100.00
58243;BME280;50118;53.232;8.252;2023-03-31T03:15:51;99868.72;;;9.64;100.00
58243;BME280;50118;53.232;8.252;2023-03-31T03:18:20;99865.38;;;9.62;100.00
58243;BME280;50118;53.232;8.252;2023-03-31T03:20:45;99861.25;;;9.67;100.00
58243;BME280;50118;53.232;8.252;2023-03-31T03:23:14;99863.75;;;9.69;100.00
58243;BME280;50118;53.232;8.252;2023-03-31T03:25:40;99865.03;;;9.65;100.00
58243;BME280;50118;53.232;8.252;2023-03-31T03:28:05;99856.91;;;9.66;100.00
58243;BME280;50118;53.232;8.252;2023-03-31T03:30:31;99848.78;;;9.68;100.00
58243;BME280;50118;53.232;8.252;2023-03-31T03:32:56;99849.09;;;9.65;100.00
58243;BME280;50118;53.232;8.252;2023-03-31T03:35:23;99843.28;;;9.61;100.00
58243;BME280;50118;53.232;8.252;2023-03-31T03:37:48;99841.13;;;9.65;100.00
58243;BME280;50118;53.232;8.252;2023-03-31T03:40:15;99832.00;;;9.67;100.00
58243;BME280;50118;53.232;8.252;2023-03-31T03:42:40;99830.97;;;9.60;100.00
58243;BME280;50118;53.232;8.252;2023-03-31T03:45:06;99825.47;;;9.62;100.00
58243;BME280;50118;53.232;8.252;2023-03-31T03:47:32;99825.97;;;9.57;100.00
58243;BME280;50118;53.232;8.252;2023-03-31T03:49:57;99817.47;;;9.45;100.00
58243;BME280;50118;53.232;8.252;2023-03-31T03:52:23;99810.13;;;9.39;100.00
58243;BME280;50118;53.232;8.252;2023-03-31T03:54:48;99814.16;;;9.43;100.00
58243;BME280;50118;53.232;8.252;2023-03-31T03:57:14;99805.81;;;9.38;100.00
58243;BME280;50118;53.232;8.252;2023-03-31T03:59:39;99797.97;;;9.28;100.00
58243;BME280;50118;53.232;8.252;2023-03-31T04:02:05;99795.81;;;9.32;100.00
58243;BME280;50118;53.232;8.252;2023-03-31T04:04:30;99779.88;;;9.32;100.00
58243;BME280;50118;53.232;8.252;2023-03-31T04:06:55;99781.00;;;9.29;100.00
58243;BME280;50118;53.232;8.252;2023-03-31T04:09:21;99780.34;;;9.27;100.00
58243;BME280;50118;53.232;8.252;2023-03-31T04:11:46;99775.34;;;9.24;100.00
58243;BME280;50118;53.232;8.252;2023-03-31T04:14:11;99771.50;;;9.19;100.00
58243;BME280;50118;53.232;8.252;2023-03-31T04:16:37;99768.34;;;9.15;100.00
58243;BME280;50118;53.232;8.252;2023-03-31T04:19:04;99761.84;;;9.18;100.00
58243;BME280;50118;53.232;8.252;2023-03-31T04:21:30;99758.34;;;9.09;100.00
58243;BME280;50118;53.232;8.252;2023-03-31T04:23:59;99748.88;;;9.06;100.00
58243;BME280;50118;53.232;8.252;2023-03-31T04:26:32;99748.38;;;9.03;100.00
58243;BME280;50118;53.232;8.252;2023-03-31T04:29:11;99745.56;;;9.04;100.00
58243;BME280;50118;53.232;8.252;2023-03-31T04:31:44;99737.56;;;8.96;100.00
58243;BME280;50118;53.232;8.252;2023-03-31T04:34:12;99729.75;;;8.94;100.00
58243;BME280;50118;53.232;8.252;2023-03-31T04:36:43;99727.03;;;8.86;100.00
58243;BME280;50118;53.232;8.252;2023-03-31T04:39:12;99720.75;;;8.87;100.00
58243;BME280;50118;53.232;8.252;2023-03-31T04:41:38;99715.41;;;8.79;100.00
58243;BME280;50118;53.232;8.252;2023-03-31T04:44:03;99703.25;;;8.76;100.00
58243;BME280;50118;53.232;8.252;2023-03-31T04:46:29;99702.75;;;8.73;100.00
58243;BME280;50118;53.232;8.252;2023-03-31T04:48:55;99705.41;;;8.73;100.00
58243;BME280;50118;53.232;8.252;2023-03-31T04:51:20;99706.34;;;8.64;100.00
58243;BME280;50118;53.232;8.252;2023-03-31T04:53:45;99701.44;;;8.77;100.00
58243;BME280;50118;53.232;8.252;2023-03-31T04:56:11;99680.84;;;8.71;100.00
58243;BME280;50118;53.232;8.252;2023-03-31T04:58:37;99681.00;;;8.69;100.00
58243;BME280;50118;53.232;8.252;2023-03-31T05:01:03;99681.19;;;8.76;100.00
58243;BME280;50118;53.232;8.252;2023-03-31T05:03:33;99671.88;;;8.72;100.00
58243;BME280;50118;53.232;8.252;2023-03-31T05:05:58;99671.53;;;8.75;100.00
58243;BME280;50118;53.232;8.252;2023-03-31T05:08:24;99674.19;;;8.75;100.00
58243;BME280;50118;53.232;8.252;2023-03-31T05:10:51;99665.72;;;8.71;100.00
58243;BME280;50118;53.232;8.252;2023-03-31T05:13:16;99658.63;;;8.80;100.00
58243;BME280;50118;53.232;8.252;2023-03-31T05:15:41;99660.94;;;8.75;100.00
58243;BME280;50118;53.232;8.252;2023-03-31T05:18:09;99651.31;;;8.74;100.00
58243;BME280;50118;53.232;8.252;2023-03-31T05:20:35;99651.00;;;8.77;100.00
58243;BME280;50118;53.232;8.252;2023-03-31T05:23:00;99645.53;;;8.78;100.00
58243;BME280;50118;53.232;8.252;2023-03-31T05:25:26;99653.97;;;8.74;100.00
58243;BME280;50118;53.232;8.252;2023-03-31T05:27:56;99642.69;;;8.80;100.00
58243;BME280;50118;53.232;8.252;2023-03-31T05:30:22;99643.03;;;8.77;100.00
58243;BME280;50118;53.232;8.252;2023-03-31T05:32:50;99640.53;;;8.75;100.00
58243;BME280;50118;53.232;8.252;2023-03-31T05:35:16;99633.56;;;8.74;100.00
58243;BME280;50118;53.232;8.252;2023-03-31T05:37:41;99633.75;;;8.81;100.00
58243;BME280;50118;53.232;8.252;2023-03-31T05:40:07;99617.31;;;8.77;100.00
58243;BME280;50118;53.232;8.252;2023-03-31T05:42:33;99633.13;;;8.87;100.00
58243;BME280;50118;53.232;8.252;2023-03-31T05:44:59;99623.63;;;8.85;100.00
58243;BME280;50118;53.232;8.252;2023-03-31T05:47:24;99627.81;;;8.87;100.00
58243;BME280;50118;53.232;8.252;2023-03-31T05:49:50;99628.31;;;8.91;100.00
58243;BME280;50118;53.232;8.252;2023-03-31T05:52:16;99630.59;;;8.77;100.00
58243;BME280;50118;53.232;8.252;2023-03-31T05:54:41;99628.75;;;8.78;100.00
58243;BME280;50118;53.232;8.252;2023-03-31T05:57:08;99624.81;;;8.82;100.00
58243;BME280;50118;53.232;8.252;2023-03-31T05:59:34;99632.41;;;8.85;100.00
58243;BME280;50118;53.232;8.252;2023-03-31T06:02:01;99622.31;;;8.81;100.00
58243;BME280;50118;53.232;8.252;2023-03-31T06:07:59;99610.78;;;8.64;100.00
58243;BME280;50118;53.232;8.252;2023-03-31T06:10:46;99617.44;;;8.68;100.00
58243;BME280;50118;53.232;8.252;2023-03-31T06:16:51;99606.81;;;8.68;100.00
58243;BME280;50118;53.232;8.252;2023-03-31T06:19:17;99593.84;;;8.65;100.00
58243;BME280;50118;53.232;8.252;2023-03-31T06:21:42;99604.00;;;8.69;100.00
58243;BME280;50118;53.232;8.252;2023-03-31T06:24:08;99595.25;;;8.77;100.00
58243;BME280;50118;53.232;8.252;2023-03-31T06:26:34;99587.47;;;8.84;100.00
58243;BME280;50118;53.232;8.252;2023-03-31T06:28:59;99590.44;;;8.81;100.00
58243;BME280;50118;53.232;8.252;2023-03-31T06:31:25;99583.63;;;8.86;100.00
58243;BME280;50118;53.232;8.252;2023-03-31T06:33:51;99586.31;;;8.94;100.00
58243;BME280;50118;53.232;8.252;2023-03-31T06:36:18;99588.44;;;8.83;100.00
58243;BME280;50118;53.232;8.252;2023-03-31T06:38:44;99590.28;;;8.90;100.00
58243;BME280;50118;53.232;8.252;2023-03-31T06:41:12;99586.31;;;8.94;100.00
58243;BME280;50118;53.232;8.252;2023-03-31T06:43:38;99578.50;;;8.93;100.00
58243;BME280;50118;53.232;8.252;2023-03-31T06:46:04;99574.34;;;8.90;100.00
58243;BME280;50118;53.232;8.252;2023-03-31T06:48:29;99567.75;;;9.03;100.00
58243;BME280;50118;53.232;8.252;2023-03-31T06:50:58;99556.09;;;8.95;100.00
58243;BME280;50118;53.232;8.252;2023-03-31T06:53:24;99567.59;;;9.04;100.00
58243;BME280;50118;53.232;8.252;2023-03-31T06:55:50;99553.47;;;9.12;100.00
58243;BME280;50118;53.232;8.252;2023-03-31T06:58:16;99562.44;;;9.19;100.00
58243;BME280;50118;53.232;8.252;2023-03-31T07:00:41;99550.50;;;9.15;100.00
58243;BME280;50118;53.232;8.252;2023-03-31T07:03:08;99559.25;;;9.07;100.00
58243;BME280;50118;53.232;8.252;2023-03-31T07:05:34;99552.16;;;9.08;100.00
58243;BME280;50118;53.232;8.252;2023-03-31T07:08:00;99554.81;;;9.16;100.00
58243;BME280;50118;53.232;8.252;2023-03-31T07:10:28;99547.66;;;9.16;100.00
58243;BME280;50118;53.232;8.252;2023-03-31T07:12:54;99547.16;;;9.13;100.00
58243;BME280;50118;53.232;8.252;2023-03-31T07:15:19;99544.00;;;9.18;100.00
58243;BME280;50118;53.232;8.252;2023-03-31T07:17:45;99538.19;;;9.30;100.00
58243;BME280;50118;53.232;8.252;2023-03-31T07:20:16;99528.25;;;9.16;100.00
58243;BME280;50118;53.232;8.252;2023-03-31T07:22:42;99543.50;;;9.30;100.00
58243;BME280;50118;53.232;8.252;2023-03-31T07:25:09;99530.38;;;9.29;100.00
58243;BME280;50118;53.232;8.252;2023-03-31T07:27:35;99529.53;;;9.45;100.00
58243;BME280;50118;53.232;8.252;2023-03-31T07:30:04;99526.88;;;9.53;100.00
58243;BME280;50118;53.232;8.252;2023-03-31T07:32:30;99510.91;;;9.69;100.00
58243;BME280;50118;53.232;8.252;2023-03-31T07:34:55;99511.38;;;9.81;100.00
58243;BME280;50118;53.232;8.252;2023-03-31T07:37:20;99517.84;;;9.87;100.00
58243;BME280;50118;53.232;8.252;2023-03-31T07:39:46;99508.53;;;9.91;100.00
58243;BME280;50118;53.232;8.252;2023-03-31T07:42:11;99510.81;;;10.02;100.00
58243;BME280;50118;53.232;8.252;2023-03-31T07:44:37;99499.16;;;10.12;100.00
58243;BME280;50118;53.232;8.252;2023-03-31T07:47:03;99504.69;;;9.94;100.00
58243;BME280;50118;53.232;8.252;2023-03-31T07:49:32;99493.47;;;10.15;100.00
58243;BME280;50118;53.232;8.252;2023-03-31T07:51:58;99493.78;;;10.20;100.00
58243;BME280;50118;53.232;8.252;2023-03-31T07:54:24;99491.00;;;10.13;100.00
58243;BME280;50118;53.232;8.252;2023-03-31T07:56:51;99495.63;;;10.19;100.00
58243;BME280;50118;53.232;8.252;2023-03-31T07:59:16;99484.22;;;10.02;100.00
58243;BME280;50118;53.232;8.252;2023-03-31T08:01:41;99476.38;;;10.09;100.00
58243;BME280;50118;53.232;8.252;2023-03-31T08:04:08;99472.88;;;10.08;100.00
58243;BME280;50118;53.232;8.252;2023-03-31T08:06:34;99478.69;;;10.12;100.00
58243;BME280;50118;53.232;8.252;2023-03-31T08:09:00;99462.88;;;10.19;100.00
58243;BME280;50118;53.232;8.252;2023-03-31T08:11:25;99464.50;;;10.20;100.00
58243;BME280;50118;53.232;8.252;2023-03-31T08:13:51;99452.22;;;10.19;100.00
58243;BME280;50118;53.232;8.252;2023-03-31T08:16:17;99453.47;;;10.31;100.00
58243;BME280;50118;53.232;8.252;2023-03-31T08:18:42;99457.00;;;10.32;100.00
58243;BME280;50118;53.232;8.252;2023-03-31T08:21:08;99450.16;;;10.37;100.00
58243;BME280;50118;53.232;8.252;2023-03-31T08:23:35;99442.47;;;10.42;100.00
58243;BME280;50118;53.232;8.252;2023-03-31T08:26:16;99441.75;;;10.49;100.00
58243;BME280;50118;53.232;8.252;2023-03-31T08:28:46;99444.19;;;10.58;100.00
58243;BME280;50118;53.232;8.252;2023-03-31T08:31:16;99425.91;;;10.55;100.00
58243;BME280;50118;53.232;8.252;2023-03-31T08:33:44;99432.44;;;10.53;100.00
58243;BME280;50118;53.232;8.252;2023-03-31T08:36:09;99419.28;;;10.74;100.00
58243;BME280;50118;53.232;8.252;2023-03-31T08:38:37;99420.59;;;10.78;100.00
58243;BME280;50118;53.232;8.252;2023-03-31T08:41:05;99422.22;;;10.79;100.00
58243;BME280;50118;53.232;8.252;2023-03-31T08:43:36;99422.03;;;10.81;100.00
58243;BME280;50118;53.232;8.252;2023-03-31T08:46:03;99410.63;;;10.72;100.00
58243;BME280;50118;53.232;8.252;2023-03-31T08:48:38;99411.28;;;10.74;100.00
58243;BME280;50118;53.232;8.252;2023-03-31T08:51:31;99409.69;;;10.65;100.00
58243;BME280;50118;53.232;8.252;2023-03-31T08:54:00;99401.88;;;10.63;100.00
58243;BME280;50118;53.232;8.252;2023-03-31T08:56:33;99402.06;;;10.85;100.00
58243;BME280;50118;53.232;8.252;2023-03-31T08:59:03;99395.16;;;10.91;100.00
58243;BME280;50118;53.232;8.252;2023-03-31T09:07:23;99393.72;;;10.65;100.00
58243;BME280;50118;53.232;8.252;2023-03-31T09:12:44;99375.19;;;10.49;100.00
58243;BME280;50118;53.232;8.252;2023-03-31T09:15:22;99374.91;;;10.43;100.00
58243;BME280;50118;53.232;8.252;2023-03-31T09:17:48;99370.31;;;10.29;100.00
58243;BME280;50118;53.232;8.252;2023-03-31T09:20:25;99372.03;;;10.22;100.00
58243;BME280;50118;53.232;8.252;2023-03-31T09:23:05;99368.47;;;10.29;100.00
58243;BME280;50118;53.232;8.252;2023-03-31T09:25:38;99357.03;;;10.29;100.00
58243;BME280;50118;53.232;8.252;2023-03-31T09:28:15;99352.75;;;10.20;100.00
58243;BME280;50118;53.232;8.252;2023-03-31T09:30:43;99348.19;;;10.05;100.00
58243;BME280;50118;53.232;8.252;2023-03-31T09:33:17;99352.56;;;10.21;100.00
58243;BME280;50118;53.232;8.252;2023-03-31T09:35:43;99357.53;;;10.24;100.00
58243;BME280;50118;53.232;8.252;2023-03-31T09:38:13;99349.38;;;10.34;100.00
58243;BME280;50118;53.232;8.252;2023-03-31T09:40:39;99352.44;;;10.46;100.00
58243;BME280;50118;53.232;8.252;2023-03-31T09:43:07;99341.91;;;10.53;100.00
58243;BME280;50118;53.232;8.252;2023-03-31T09:45:33;99334.97;;;10.43;100.00
58243;BME280;50118;53.232;8.252;2023-03-31T09:48:15;99342.72;;;10.53;100.00
58243;BME280;50118;53.232;8.252;2023-03-31T09:50:49;99335.03;;;10.58;100.00
58243;BME280;50118;53.232;8.252;2023-03-31T09:53:22;99328.53;;;10.61;100.00
58243;BME280;50118;53.232;8.252;2023-03-31T09:55:52;99334.97;;;10.67;100.00
58243;BME280;50118;53.232;8.252;2023-03-31T09:58:20;99330.72;;;10.57;100.00
58243;BME280;50118;53.232;8.252;2023-03-31T10:01:05;99324.69;;;10.78;100.00
58243;BME280;50118;53.232;8.252;2023-03-31T10:03:43;99319.47;;;10.85;100.00
58243;BME280;50118;53.232;8.252;2023-03-31T10:06:14;99325.00;;;10.98;100.00
58243;BME280;50118;53.232;8.252;2023-03-31T10:08:42;99318.00;;;10.97;100.00
58243;BME280;50118;53.232;8.252;2023-03-31T10:11:09;99324.25;;;11.05;100.00
58243;BME280;50118;53.232;8.252;2023-03-31T10:16:13;99314.44;;;11.35;100.00
58243;BME280;50118;53.232;8.252;2023-03-31T10:18:41;99311.22;;;11.39;100.00
58243;BME280;50118;53.232;8.252;2023-03-31T10:21:20;99312.13;;;11.47;100.00
58243;BME280;50118;53.232;8.252;2023-03-31T10:23:46;99298.31;;;11.58;100.00
58243;BME280;50118;53.232;8.252;2023-03-31T10:26:16;99304.22;;;11.38;100.00
58243;BME280;50118;53.232;8.252;2023-03-31T10:28:43;99302.22;;;11.77;100.00
58243;BME280;50118;53.232;8.252;2023-03-31T10:31:08;99297.22;;;12.04;100.00
58243;BME280;50118;53.232;8.252;2023-03-31T10:33:40;99298.81;;;12.20;100.00
58243;BME280;50118;53.232;8.252;2023-03-31T10:38:43;99289.84;;;12.06;100.00
58243;BME280;50118;53.232;8.252;2023-03-31T10:41:10;99283.03;;;11.88;100.00
58243;BME280;50118;53.232;8.252;2023-03-31T10:43:42;99292.69;;;12.26;100.00
58243;BME280;50118;53.232;8.252;2023-03-31T10:46:08;99286.41;;;12.33;100.00
58243;BME280;50118;53.232;8.252;2023-03-31T10:48:39;99284.38;;;12.14;100.00
58243;BME280;50118;53.232;8.252;2023-03-31T10:51:26;99280.72;;;12.00;100.00
58243;BME280;50118;53.232;8.252;2023-03-31T10:53:54;99275.56;;;11.77;100.00
58243;BME280;50118;53.232;8.252;2023-03-31T10:56:50;99280.41;;;11.37;100.00
58243;BME280;50118;53.232;8.252;2023-03-31T10:59:44;99276.00;;;11.44;100.00
58243;BME280;50118;53.232;8.252;2023-03-31T11:02:31;99276.56;;;11.25;100.00
58243;BME280;50118;53.232;8.252;2023-03-31T11:08:18;99272.63;;;11.06;100.00
58243;BME280;50118;53.232;8.252;2023-03-31T11:13:30;99270.25;;;11.26;100.00
58243;BME280;50118;53.232;8.252;2023-03-31T11:21:43;99265.00;;;11.02;100.00
58243;BME280;50118;53.232;8.252;2023-03-31T11:29:56;99266.63;;;11.18;100.00
58243;BME280;50118;53.232;8.252;2023-03-31T11:38:13;99243.94;;;11.23;100.00
58243;BME280;50118;53.232;8.252;2023-03-31T11:41:33;99238.09;;;11.49;100.00
58243;BME280;50118;53.232;8.252;2023-03-31T11:43:51;99253.81;;;11.58;100.00
58243;BME280;50118;53.232;8.252;2023-03-31T11:46:25;99246.59;;;11.74;100.00
58243;BME280;50118;53.232;8.252;2023-03-31T11:48:58;99241.69;;;11.92;100.00
58243;BME280;50118;53.232;8.252;2023-03-31T11:57:24;99236.03;;;11.44;100.00
58243;BME280;50118;53.232;8.252;2023-03-31T11:59:56;99239.72;;;11.13;100.00
58243;BME280;50118;53.232;8.252;2023-03-31T12:05:33;99247.25;;;11.10;100.00
58243;BME280;50118;53.232;8.252;2023-03-31T12:08:05;99245.63;;;11.09;100.00
58243;BME280;50118;53.232;8.252;2023-03-31T12:10:36;99245.03;;;11.13;100.00
58243;BME280;50118;53.232;8.252;2023-03-31T12:19:20;99233.47;;;11.57;100.00
58243;BME280;50118;53.232;8.252;2023-03-31T12:22:11;99230.91;;;11.86;100.00
58243;BME280;50118;53.232;8.252;2023-03-31T12:24:38;99226.25;;;11.73;100.00
58243;BME280;50118;53.232;8.252;2023-03-31T12:27:19;99226.25;;;11.73;100.00
58243;BME280;50118;53.232;8.252;2023-03-31T12:32:22;99223.59;;;11.51;100.00
58243;BME280;50118;53.232;8.252;2023-03-31T12:35:20;99225.13;;;11.46;100.00
58243;BME280;50118;53.232;8.252;2023-03-31T12:41:07;99228.91;;;11.51;100.00
58243;BME280;50118;53.232;8.252;2023-03-31T12:52:30;99223.34;;;11.31;100.00
58243;BME280;50118;53.232;8.252;2023-03-31T12:55:35;99220.69;;;11.16;100.00
58243;BME280;50118;53.232;8.252;2023-03-31T13:04:07;99206.75;;;11.14;100.00
58243;BME280;50118;53.232;8.252;2023-03-31T13:09:04;99192.78;;;11.12;100.00
58243;BME280;50118;53.232;8.252;2023-03-31T13:14:01;99202.91;;;11.02;100.00
58243;BME280;50118;53.232;8.252;2023-03-31T13:16:29;99194.28;;;11.00;100.00
58243;BME280;50118;53.232;8.252;2023-03-31T13:18:55;99203.06;;;11.15;100.00
58243;BME280;50118;53.232;8.252;2023-03-31T13:21:22;99199.38;;;11.16;100.00
58243;BME280;50118;53.232;8.252;2023-03-31T13:23:49;99202.84;;;11.32;100.00
58243;BME280;50118;53.232;8.252;2023-03-31T13:26:34;99204.03;;;11.44;100.00
58243;BME280;50118;53.232;8.252;2023-03-31T13:34:34;99200.00;;;11.33;100.00
58243;BME280;50118;53.232;8.252;2023-03-31T13:58:51;99176.06;;;12.61;100.00
58243;BME280;50118;53.232;8.252;2023-03-31T14:06:47;99183.63;;;12.86;100.00
58243;BME280;50118;53.232;8.252;2023-03-31T14:09:28;99184.31;;;12.66;100.00
58243;BME280;50118;53.232;8.252;2023-03-31T14:12:02;99176.41;;;12.45;100.00
58243;BME280;50118;53.232;8.252;2023-03-31T14:14:42;99180.03;;;12.37;100.00
58243;BME280;50118;53.232;8.252;2023-03-31T14:17:10;99186.19;;;12.38;100.00
58243;BME280;50118;53.232;8.252;2023-03-31T14:25:58;99171.63;;;12.40;100.00
58243;BME280;50118;53.232;8.252;2023-03-31T14:34:07;99164.13;;;12.99;100.00
58243;BME280;50118;53.232;8.252;2023-03-31T14:39:24;99166.84;;;13.60;100.00
58243;BME280;50118;53.232;8.252;2023-03-31T14:41:52;99161.28;;;13.89;100.00
58243;BME280;50118;53.232;8.252;2023-03-31T14:44:19;99156.72;;;13.56;100.00
58243;BME280;50118;53.232;8.252;2023-03-31T14:46:45;99164.03;;;13.27;100.00
58243;BME280;50118;53.232;8.252;2023-03-31T14:49:19;99158.06;;;13.25;100.00
58243;BME280;50118;53.232;8.252;2023-03-31T14:51:45;99165.13;;;13.39;100.00
58243;BME280;50118;53.232;8.252;2023-03-31T14:54:15;99167.72;;;13.26;100.00
58243;BME280;50118;53.232;8.252;2023-03-31T14:56:44;99165.59;;;13.01;100.00
58243;BME280;50118;53.232;8.252;2023-03-31T14:59:17;99160.41;;;12.93;100.00
58243;BME280;50118;53.232;8.252;2023-03-31T15:01:45;99157.59;;;12.66;100.00
58243;BME280;50118;53.232;8.252;2023-03-31T15:04:20;99156.31;;;12.56;100.00
58243;BME280;50118;53.232;8.252;2023-03-31T15:06:48;99157.38;;;12.61;100.00
58243;BME280;50118;53.232;8.252;2023-03-31T15:09:24;99160.69;;;12.63;100.00
58243;BME280;50118;53.232;8.252;2023-03-31T15:11:58;99164.16;;;12.57;100.00
58243;BME280;50118;53.232;8.252;2023-03-31T15:14:29;99157.81;;;12.30;100.00
58243;BME280;50118;53.232;8.252;2023-03-31T15:16:55;99159.34;;;12.46;100.00
58243;BME280;50118;53.232;8.252;2023-03-31T15:19:22;99159.78;;;12.49;100.00
58243;BME280;50118;53.232;8.252;2023-03-31T15:22:10;99159.50;;;12.38;100.00
58243;BME280;50118;53.232;8.252;2023-03-31T15:24:38;99159.91;;;12.35;100.00
58243;BME280;50118;53.232;8.252;2023-03-31T15:27:36;99157.56;;;12.25;100.00
58243;BME280;50118;53.232;8.252;2023-03-31T15:30:22;99156.09;;;12.22;100.00
58243;BME280;50118;53.232;8.252;2023-03-31T15:32:48;99157.13;;;12.21;100.00
58243;BME280;50118;53.232;8.252;2023-03-31T15:35:22;99145.25;;;11.95;100.00
58243;BME280;50118;53.232;8.252;2023-03-31T15:37:51;99154.63;;;11.91;100.00
58243;BME280;50118;53.232;8.252;2023-03-31T15:40:27;99150.69;;;11.87;100.00
58243;BME280;50118;53.232;8.252;2023-03-31T15:43:39;99140.13;;;11.79;100.00
58243;BME280;50118;53.232;8.252;2023-03-31T15:46:17;99138.94;;;11.82;100.00
58243;BME280;50118;53.232;8.252;2023-03-31T15:48:51;99146.47;;;11.78;100.00
58243;BME280;50118;53.232;8.252;2023-03-31T15:53:50;99136.84;;;11.55;100.00
58243;BME280;50118;53.232;8.252;2023-03-31T15:56:44;99138.88;;;11.53;100.00
58243;BME280;50118;53.232;8.252;2023-03-31T16:01:48;99142.63;;;11.59;100.00
58243;BME280;50118;53.232;8.252;2023-03-31T16:04:15;99133.38;;;11.55;100.00
58243;BME280;50118;53.232;8.252;2023-03-31T16:14:24;99135.06;;;11.63;100.00